Time,TemperatureF,DewpointF,PressureIn,WindDirection,WindDirectionDegrees,WindSpeedMPH,WindSpeedGustMPH,Humidity,HourlyPrecipIn,Conditions,Clouds,dailyrainin,SoftwareType,DateUTC
2013-02-22 00:00:00,74.6,74.6,29.94,ESE,117,2.0,2.0,100,0.00,,,0.00,Wunderground v.1.15,2013-02-22 05:00:00,
2013-02-22 00:05:00,74.6,74.6,29.94,East,89,2.0,2.0,100,0.00,,,0.00,Wunderground v.1.15,2013-02-22 05:05:00,
2013-02-22 00:10:00,74.6,74.6,29.94,ESE,102,2.0,2.0,100,0.00,,,0.00,Wunderground v.1.15,2013-02-22 05:10:00,
2013-02-22 00:20:00,74.6,74.6,29.94,ESE,109,2.0,2.0,100,0.00,,,0.00,Wunderground v.1.15,2013-02-22 05:20:00,
2013-02-22 00:25:00,74.6,74.6,29.94,East,80,2.0,2.0,100,0.00,,,0.00,Wunderground v.1.15,2013-02-22 05:25:00,
2013-02-22 00:30:00,74.6,74.6,29.94,East,82,3.0,3.0,100,0.00,,,0.00,Wunderground v.1.15,2013-02-22 05:30:00,
2013-02-22 00:40:00,74.7,74.7,29.94,East,79,3.0,3.0,100,0.00,,,0.00,Wunderground v.1.15,2013-02-22 05:40:00,
2013-02-22 00:45:00,74.7,74.7,29.94,ESE,112,2.0,4.0,100,0.00,,,0.00,Wunderground v.1.15,2013-02-22 05:45:00,
2013-02-22 00:55:00,74.9,74.9,29.94,ESE,103,3.0,3.0,100,0.00,,,0.00,Wunderground v.1.15,2013-02-22 05:55:00,
2013-02-22 01:00:00,74.7,74.7,29.94,East,96,2.0,2.0,100,0.00,,,0.00,Wunderground v.1.15,2013-02-22 06:00:00,
2013-02-22 01:10:00,74.7,74.7,29.94,East,97,2.0,2.0,100,0.00,,,0.00,Wunderground v.1.15,2013-02-22 06:10:00,
2013-02-22 01:15:00,74.7,74.7,29.94,East,97,2.0,3.0,100,0.00,,,0.00,Wunderground v.1.15,2013-02-22 06:15:00,
2013-02-22 01:20:00,74.6,74.6,29.94,ESE,107,2.0,3.0,100,0.00,,,0.00,Wunderground v.1.15,2013-02-22 06:20:00,
2013-02-22 01:25:00,74.7,74.7,29.94,East,89,3.0,3.0,100,0.00,,,0.00,Wunderground v.1.15,2013-02-22 06:25:00,
2013-02-22 01:30:00,74.7,74.7,29.93,ESE,113,3.0,3.0,100,0.00,,,0.00,Wunderground v.1.15,2013-02-22 06:30:00,
2013-02-22 01:40:00,74.7,74.7,29.93,East,86,3.0,3.0,100,0.00,,,0.00,Wunderground v.1.15,2013-02-22 06:40:00,
2013-02-22 01:50:00,74.9,74.9,29.92,East,93,3.0,5.0,100,0.00,,,0.00,Wunderground v.1.15,2013-02-22 06:50:00,
2013-02-22 01:55:00,74.9,74.9,29.92,ESE,110,4.0,5.0,100,0.00,,,0.00,Wunderground v.1.15,2013-02-22 06:55:00,
2013-02-22 02:00:00,74.9,74.9,29.92,ESE,119,3.0,3.0,100,0.00,,,0.00,Wunderground v.1.15,2013-02-22 07:00:00,
2013-02-22 02:05:00,74.9,74.9,29.92,East,96,3.0,3.0,100,0.00,,,0.00,Wunderground v.1.15,2013-02-22 07:05:00,
2013-02-22 02:15:00,74.9,74.9,29.92,ESE,114,2.0,3.0,100,0.00,,,0.00,Wunderground v.1.15,2013-02-22 07:15:00,
2013-02-22 02:20:00,74.9,74.9,29.92,East,80,3.0,3.0,100,0.00,,,0.00,Wunderground v.1.15,2013-02-22 07:20:00,
2013-02-22 02:25:00,74.9,74.9,29.92,East,86,3.0,3.0,100,0.00,,,0.00,Wunderground v.1.15,2013-02-22 07:25:00,
2013-02-22 02:35:00,75.1,75.1,29.92,ESE,119,5.0,7.0,100,0.00,,,0.00,Wunderground v.1.15,2013-02-22 07:35:00,
2013-02-22 02:40:00,75.1,75.1,29.92,ESE,117,5.0,5.0,100,0.00,,,0.00,Wunderground v.1.15,2013-02-22 07:40:00,
2013-02-22 02:55:00,75.3,75.3,29.91,ESE,112,5.0,6.0,100,0.00,,,0.00,Wunderground v.1.15,2013-02-22 07:55:00,
2013-02-22 03:05:00,74.9,74.9,29.91,ESE,114,3.0,6.0,100,0.00,,,0.00,Wunderground v.1.15,2013-02-22 08:05:00,
2013-02-22 03:10:00,75.1,75.1,29.91,SE,130,4.0,4.0,100,0.00,,,0.00,Wunderground v.1.15,2013-02-22 08:10:00,
2013-02-22 03:15:00,75.1,75.1,29.91,ESE,121,4.0,4.0,100,0.00,,,0.00,Wunderground v.1.15,2013-02-22 08:15:00,
2013-02-22 03:20:00,74.9,74.9,29.91,ESE,120,3.0,3.0,100,0.00,,,0.00,Wunderground v.1.15,2013-02-22 08:20:00,
2013-02-22 03:25:00,74.9,74.9,29.91,ESE,121,2.0,3.0,100,0.00,,,0.00,Wunderground v.1.15,2013-02-22 08:25:00,
2013-02-22 03:30:00,74.9,74.9,29.91,SE,131,2.0,2.0,100,0.00,,,0.00,Wunderground v.1.15,2013-02-22 08:30:00,
2013-02-22 03:35:00,74.9,74.9,29.91,ESE,114,2.0,3.0,100,0.00,,,0.00,Wunderground v.1.15,2013-02-22 08:35:00,
2013-02-22 03:40:00,74.9,74.9,29.91,SE,131,4.0,8.0,100,0.00,,,0.00,Wunderground v.1.15,2013-02-22 08:40:00,
2013-02-22 03:50:00,74.9,74.9,29.90,ESE,123,4.0,4.0,100,0.00,,,0.00,Wunderground v.1.15,2013-02-22 08:50:00,
2013-02-22 03:55:00,75.1,75.1,29.90,ESE,116,4.0,4.0,100,0.00,,,0.00,Wunderground v.1.15,2013-02-22 08:55:00,
2013-02-22 04:00:00,75.1,75.1,29.91,ESE,120,4.0,6.0,100,0.00,,,0.00,Wunderground v.1.15,2013-02-22 09:00:00,
2013-02-22 04:10:00,75.1,75.1,29.91,SE,130,3.0,8.0,100,0.00,,,0.00,Wunderground v.1.15,2013-02-22 09:10:00,
2013-02-22 04:20:00,74.9,74.9,29.91,ESE,107,3.0,6.0,100,0.00,,,0.00,Wunderground v.1.15,2013-02-22 09:20:00,
2013-02-22 04:25:00,74.9,74.9,29.91,SE,134,3.0,7.0,100,0.00,,,0.00,Wunderground v.1.15,2013-02-22 09:25:00,
2013-02-22 04:30:00,74.9,74.9,29.91,ESE,112,4.0,4.0,100,0.00,,,0.00,Wunderground v.1.15,2013-02-22 09:30:00,
2013-02-22 04:35:00,74.9,74.9,29.91,ESE,104,2.0,8.0,100,0.00,,,0.00,Wunderground v.1.15,2013-02-22 09:35:00,
2013-02-22 04:45:00,74.9,74.9,29.92,SE,124,4.0,6.0,100,0.00,,,0.00,Wunderground v.1.15,2013-02-22 09:45:00,
2013-02-22 04:55:00,75.1,75.1,29.92,SE,138,4.0,8.0,100,0.00,,,0.00,Wunderground v.1.15,2013-02-22 09:55:00,
2013-02-22 05:00:00,75.1,75.1,29.92,East,86,3.0,3.0,100,0.00,,,0.00,Wunderground v.1.15,2013-02-22 10:00:00,
2013-02-22 05:05:00,75.1,75.1,29.92,ESE,104,2.0,3.0,100,0.00,,,0.00,Wunderground v.1.15,2013-02-22 10:05:00,
2013-02-22 05:10:00,75.1,75.1,29.92,ESE,123,3.0,3.0,100,0.00,,,0.00,Wunderground v.1.15,2013-02-22 10:10:00,
2013-02-22 05:15:00,75.1,75.1,29.93,ESE,109,3.0,3.0,100,0.00,,,0.00,Wunderground v.1.15,2013-02-22 10:15:00,
2013-02-22 05:25:00,75.1,75.1,29.93,East,100,2.0,2.0,100,0.00,,,0.00,Wunderground v.1.15,2013-02-22 10:25:00,
2013-02-22 05:35:00,75.1,75.1,29.93,ESE,113,4.0,5.0,100,0.00,,,0.00,Wunderground v.1.15,2013-02-22 10:35:00,
2013-02-22 05:40:00,75.1,75.1,29.93,ESE,110,3.0,5.0,100,0.00,,,0.00,Wunderground v.1.15,2013-02-22 10:40:00,
2013-02-22 05:45:00,75.1,75.1,29.94,ESE,116,4.0,5.0,100,0.00,,,0.00,Wunderground v.1.15,2013-02-22 10:45:00,
2013-02-22 05:50:00,75.1,75.1,29.94,ESE,116,4.0,4.0,100,0.00,,,0.00,Wunderground v.1.15,2013-02-22 10:50:00,
2013-02-22 05:55:00,75.1,75.1,29.94,ESE,113,3.0,4.0,100,0.00,,,0.00,Wunderground v.1.15,2013-02-22 10:55:00,
2013-02-22 06:00:00,75.1,75.1,29.94,ESE,117,3.0,3.0,100,0.00,,,0.00,Wunderground v.1.15,2013-02-22 11:00:00,
2013-02-22 06:10:00,75.1,75.1,29.94,ESE,110,3.0,3.0,100,0.00,,,0.00,Wunderground v.1.15,2013-02-22 11:10:00,
2013-02-22 06:20:00,74.9,74.9,29.94,ESE,113,3.0,3.0,100,0.00,,,0.00,Wunderground v.1.15,2013-02-22 11:20:00,
2013-02-22 06:30:00,74.9,74.9,29.95,East,97,3.0,4.0,100,0.00,,,0.00,Wunderground v.1.15,2013-02-22 11:30:00,
2013-02-22 06:35:00,74.9,74.9,29.95,SE,144,4.0,6.0,100,0.00,,,0.00,Wunderground v.1.15,2013-02-22 11:35:00,
2013-02-22 06:40:00,75.1,75.1,29.95,ESE,107,4.0,4.0,100,0.00,,,0.00,Wunderground v.1.15,2013-02-22 11:40:00,
2013-02-22 06:45:00,75.1,75.1,29.95,ESE,103,5.0,6.0,100,0.00,,,0.00,Wunderground v.1.15,2013-02-22 11:45:00,
2013-02-22 06:50:00,75.1,75.1,29.95,ESE,110,6.0,10.0,100,0.00,,,0.00,Wunderground v.1.15,2013-02-22 11:50:00,
2013-02-22 07:00:00,75.3,75.3,29.95,East,99,7.0,7.0,100,0.00,,,0.00,Wunderground v.1.15,2013-02-22 12:00:00,
2013-02-22 07:10:00,75.1,75.1,29.95,SE,124,7.0,7.0,100,0.00,,,0.00,Wunderground v.1.15,2013-02-22 12:10:00,
2013-02-22 07:15:00,75.3,75.3,29.96,ESE,112,8.0,8.0,100,0.00,,,0.00,Wunderground v.1.15,2013-02-22 12:15:00,
2013-02-22 07:20:00,75.3,75.3,29.96,ESE,103,8.0,8.0,100,0.00,,,0.00,Wunderground v.1.15,2013-02-22 12:20:00,
2013-02-22 07:25:00,75.4,75.4,29.96,ESE,119,7.0,11.0,100,0.00,,,0.00,Wunderground v.1.15,2013-02-22 12:25:00,
2013-02-22 07:35:00,75.8,75.8,29.97,ESE,116,6.0,7.0,100,0.00,,,0.00,Wunderground v.1.15,2013-02-22 12:35:00,
2013-02-22 07:45:00,75.8,75.8,29.97,ESE,121,7.0,10.0,100,0.00,,,0.00,Wunderground v.1.15,2013-02-22 12:45:00,
2013-02-22 07:55:00,76.0,76.0,29.97,SE,130,8.0,8.0,100,0.00,,,0.00,Wunderground v.1.15,2013-02-22 12:55:00,
2013-02-22 08:00:00,76.1,76.1,29.98,ESE,114,8.0,8.0,100,0.00,,,0.00,Wunderground v.1.15,2013-02-22 13:00:00,
2013-02-22 08:10:00,76.3,76.3,29.98,ESE,113,6.0,6.0,100,0.00,,,0.00,Wunderground v.1.15,2013-02-22 13:10:00,
2013-02-22 08:15:00,76.5,76.5,29.98,ESE,109,5.0,6.0,100,0.00,,,0.00,Wunderground v.1.15,2013-02-22 13:15:00,
2013-02-22 08:20:00,76.5,76.5,29.98,ESE,119,4.0,10.0,100,0.00,,,0.00,Wunderground v.1.15,2013-02-22 13:20:00,
2013-02-22 08:30:00,76.5,76.5,29.99,ESE,120,6.0,6.0,100,0.00,,,0.00,Wunderground v.1.15,2013-02-22 13:30:00,
2013-02-22 08:40:00,76.7,76.7,29.99,ESE,104,7.0,10.0,100,0.00,,,0.00,Wunderground v.1.15,2013-02-22 13:40:00,
2013-02-22 08:45:00,76.8,76.8,29.99,ESE,102,6.0,10.0,100,0.00,,,0.00,Wunderground v.1.15,2013-02-22 13:45:00,
2013-02-22 08:50:00,77.2,77.2,29.99,ESE,104,3.0,5.0,100,0.00,,,0.00,Wunderground v.1.15,2013-02-22 13:50:00,
2013-02-22 09:00:00,77.4,77.4,30.00,ESE,109,5.0,5.0,100,0.00,,,0.00,Wunderground v.1.15,2013-02-22 14:00:00,
2013-02-22 09:05:00,77.4,77.4,30.00,ESE,117,5.0,5.0,100,0.00,,,0.00,Wunderground v.1.15,2013-02-22 14:05:00,
2013-02-22 09:10:00,77.4,77.4,30.00,ESE,117,5.0,5.0,100,0.00,,,0.00,Wunderground v.1.15,2013-02-22 14:10:00,
2013-02-22 09:15:00,77.4,77.4,30.00,ESE,121,5.0,7.0,100,0.00,,,0.00,Wunderground v.1.15,2013-02-22 14:15:00,
2013-02-22 09:25:00,77.7,77.7,30.00,ESE,110,4.0,5.0,100,0.00,,,0.00,Wunderground v.1.15,2013-02-22 14:25:00,
2013-02-22 09:30:00,77.7,77.7,30.00,East,82,5.0,5.0,100,0.00,,,0.00,Wunderground v.1.15,2013-02-22 14:30:00,
2013-02-22 09:35:00,77.9,77.9,30.00,ESE,114,4.0,5.0,100,0.00,,,0.00,Wunderground v.1.15,2013-02-22 14:35:00,
2013-02-22 09:40:00,77.9,77.9,30.00,ESE,123,4.0,5.0,100,0.00,,,0.00,Wunderground v.1.15,2013-02-22 14:40:00,
2013-02-22 09:50:00,78.1,78.1,30.00,ESE,117,4.0,4.0,100,0.00,,,0.00,Wunderground v.1.15,2013-02-22 14:50:00,
2013-02-22 10:00:00,78.5,78.5,30.00,SE,140,3.0,3.0,100,0.00,,,0.00,Wunderground v.1.15,2013-02-22 15:00:00,
2013-02-22 10:05:00,78.5,78.5,30.00,SE,133,4.0,4.0,100,0.00,,,0.00,Wunderground v.1.15,2013-02-22 15:05:00,
2013-02-22 10:10:00,78.8,78.8,30.00,East,93,4.0,5.0,100,0.00,,,0.00,Wunderground v.1.15,2013-02-22 15:10:00,
2013-02-22 10:20:00,78.3,78.3,30.00,ESE,109,5.0,8.0,100,0.00,,,0.00,Wunderground v.1.15,2013-02-22 15:20:00,
2013-02-22 10:25:00,78.6,78.6,30.00,ESE,107,5.0,8.0,100,0.00,,,0.00,Wunderground v.1.15,2013-02-22 15:25:00,
2013-02-22 10:30:00,78.8,78.8,30.00,SE,134,4.0,4.0,100,0.00,,,0.00,Wunderground v.1.15,2013-02-22 15:30:00,
2013-02-22 10:35:00,78.5,78.5,30.00,ESE,109,4.0,4.0,100,0.00,,,0.00,Wunderground v.1.15,2013-02-22 15:35:00,
2013-02-22 10:40:00,78.3,78.3,30.00,ENE,75,5.0,8.0,100,0.00,,,0.00,Wunderground v.1.15,2013-02-22 15:40:00,
2013-02-22 10:45:00,78.3,78.3,30.00,ESE,116,6.0,8.0,100,0.00,,,0.00,Wunderground v.1.15,2013-02-22 15:45:00,
2013-02-22 10:55:00,78.1,78.1,30.00,ESE,109,7.0,10.0,100,0.00,,,0.00,Wunderground v.1.15,2013-02-22 15:55:00,
2013-02-22 11:00:00,77.7,77.7,30.00,East,96,8.0,8.0,100,0.00,,,0.00,Wunderground v.1.15,2013-02-22 16:00:00,
2013-02-22 11:10:00,78.5,78.5,30.00,ESE,106,7.0,7.0,100,0.00,,,0.00,Wunderground v.1.15,2013-02-22 16:10:00,
2013-02-22 11:20:00,79.0,79.0,30.00,ESE,121,5.0,7.0,100,0.00,,,0.00,Wunderground v.1.15,2013-02-22 16:20:00,
2013-02-22 11:25:00,78.8,78.8,30.00,ESE,106,6.0,10.0,100,0.00,,,0.00,Wunderground v.1.15,2013-02-22 16:25:00,
2013-02-22 11:30:00,78.8,78.8,29.99,East,90,6.0,6.0,100,0.00,,,0.00,Wunderground v.1.15,2013-02-22 16:30:00,
2013-02-22 11:35:00,79.0,79.0,29.99,SE,130,5.0,6.0,100,0.00,,,0.00,Wunderground v.1.15,2013-02-22 16:35:00,
2013-02-22 11:45:00,78.6,78.6,29.99,ESE,107,6.0,11.0,100,0.00,,,0.00,Wunderground v.1.15,2013-02-22 16:45:00,
2013-02-22 11:50:00,78.6,78.6,29.99,ESE,110,7.0,8.0,100,0.00,,,0.00,Wunderground v.1.15,2013-02-22 16:50:00,
2013-02-22 11:55:00,78.8,78.8,29.99,ESE,117,5.0,10.0,100,0.00,,,0.00,Wunderground v.1.15,2013-02-22 16:55:00,
2013-02-22 12:00:00,78.8,78.8,29.98,SE,137,6.0,6.0,100,0.00,,,0.00,Wunderground v.1.15,2013-02-22 17:00:00,
2013-02-22 12:05:00,78.8,78.8,29.98,ESE,120,6.0,6.0,100,0.00,,,0.00,Wunderground v.1.15,2013-02-22 17:05:00,
2013-02-22 12:10:00,78.6,78.6,29.98,ESE,103,5.0,6.0,100,0.00,,,0.00,Wunderground v.1.15,2013-02-22 17:10:00,
2013-02-22 12:15:00,78.5,78.5,29.98,ESE,119,6.0,7.0,100,0.00,,,0.00,Wunderground v.1.15,2013-02-22 17:15:00,
2013-02-22 12:20:00,78.5,78.5,29.98,East,96,7.0,9.0,100,0.00,,,0.00,Wunderground v.1.15,2013-02-22 17:20:00,
2013-02-22 12:30:00,78.6,78.6,29.98,East,93,7.0,7.0,100,0.00,,,0.00,Wunderground v.1.15,2013-02-22 17:30:00,
2013-02-22 12:35:00,78.8,78.8,29.98,East,93,6.0,7.0,100,0.00,,,0.00,Wunderground v.1.15,2013-02-22 17:35:00,
2013-02-22 12:40:00,78.8,78.8,29.98,ESE,123,6.0,10.0,100,0.00,,,0.00,Wunderground v.1.15,2013-02-22 17:40:00,
2013-02-22 12:50:00,78.3,78.3,29.97,ESE,104,7.0,11.0,100,0.00,,,0.00,Wunderground v.1.15,2013-02-22 17:50:00,
2013-02-22 12:55:00,78.3,78.3,29.97,ESE,121,7.0,11.0,100,0.00,,,0.00,Wunderground v.1.15,2013-02-22 17:55:00,
2013-02-22 13:00:00,78.8,78.8,29.97,East,80,6.0,6.0,100,0.00,,,0.00,Wunderground v.1.15,2013-02-22 18:00:00,
2013-02-22 13:10:00,79.6,79.6,29.97,ESE,121,4.0,4.0,100,0.00,,,0.00,Wunderground v.1.15,2013-02-22 18:10:00,
2013-02-22 13:15:00,79.8,79.8,29.96,ESE,103,5.0,6.0,100,0.00,,,0.00,Wunderground v.1.15,2013-02-22 18:15:00,
2013-02-22 13:20:00,79.2,79.2,29.96,SE,140,5.0,7.0,100,0.00,,,0.00,Wunderground v.1.15,2013-02-22 18:20:00,
2013-02-22 13:25:00,79.2,79.2,29.96,SE,138,6.0,7.0,100,0.00,,,0.00,Wunderground v.1.15,2013-02-22 18:25:00,
2013-02-22 13:30:00,79.2,79.2,29.96,ESE,112,5.0,7.0,100,0.00,,,0.00,Wunderground v.1.15,2013-02-22 18:30:00,
2013-02-22 13:35:00,78.8,78.8,29.96,East,79,6.0,7.0,100,0.00,,,0.00,Wunderground v.1.15,2013-02-22 18:35:00,
2013-02-22 13:40:00,78.5,78.5,29.96,ESE,107,7.0,8.0,100,0.00,,,0.00,Wunderground v.1.15,2013-02-22 18:40:00,
2013-02-22 13:45:00,78.3,78.3,29.95,SSE,157,8.0,8.0,100,0.00,,,0.00,Wunderground v.1.15,2013-02-22 18:45:00,
2013-02-22 13:50:00,78.3,78.3,29.95,ESE,109,7.0,7.0,100,0.00,,,0.00,Wunderground v.1.15,2013-02-22 18:50:00,
2013-02-22 14:00:00,78.8,78.8,29.95,ESE,110,6.0,7.0,100,0.00,,,0.00,Wunderground v.1.15,2013-02-22 19:00:00,
2013-02-22 14:05:00,78.8,78.8,29.95,ESE,110,6.0,7.0,100,0.00,,,0.00,Wunderground v.1.15,2013-02-22 19:05:00,
2013-02-22 14:15:00,78.6,78.6,29.94,ESE,109,5.0,6.0,100,0.00,,,0.00,Wunderground v.1.15,2013-02-22 19:15:00,
2013-02-22 14:20:00,79.0,79.0,29.94,ESE,123,5.0,7.0,100,0.00,,,0.00,Wunderground v.1.15,2013-02-22 19:20:00,
2013-02-22 14:30:00,79.4,79.4,29.94,SE,127,4.0,7.0,100,0.00,,,0.00,Wunderground v.1.15,2013-02-22 19:30:00,
2013-02-22 14:35:00,79.2,79.2,29.94,ESE,119,4.0,7.0,100,0.00,,,0.00,Wunderground v.1.15,2013-02-22 19:35:00,
2013-02-22 14:40:00,79.0,79.0,29.94,ESE,116,4.0,11.0,100,0.00,,,0.00,Wunderground v.1.15,2013-02-22 19:40:00,
2013-02-22 14:45:00,79.0,79.0,29.94,SE,133,5.0,11.0,100,0.00,,,0.00,Wunderground v.1.15,2013-02-22 19:45:00,
2013-02-22 14:50:00,78.5,78.5,29.94,SE,133,7.0,7.0,100,0.00,,,0.00,Wunderground v.1.15,2013-02-22 19:50:00,
2013-02-22 14:55:00,78.1,78.1,29.94,ESE,114,8.0,8.0,100,0.00,,,0.00,Wunderground v.1.15,2013-02-22 19:55:00,
2013-02-22 15:00:00,78.3,78.3,29.93,ESE,104,8.0,10.0,100,0.00,,,0.00,Wunderground v.1.15,2013-02-22 20:00:00,
2013-02-22 15:05:00,78.6,78.6,29.93,ESE,123,6.0,10.0,100,0.00,,,0.00,Wunderground v.1.15,2013-02-22 20:05:00,
2013-02-22 15:10:00,78.5,78.5,29.93,ESE,114,6.0,8.0,100,0.00,,,0.00,Wunderground v.1.15,2013-02-22 20:10:00,
2013-02-22 15:15:00,78.1,78.1,29.93,East,99,8.0,10.0,100,0.00,,,0.00,Wunderground v.1.15,2013-02-22 20:15:00,
2013-02-22 15:20:00,77.9,77.9,29.93,SE,127,9.0,9.0,100,0.00,,,0.00,Wunderground v.1.15,2013-02-22 20:20:00,
2013-02-22 15:30:00,77.9,77.9,29.93,SE,124,8.0,8.0,100,0.00,,,0.00,Wunderground v.1.15,2013-02-22 20:30:00,
2013-02-22 15:35:00,77.9,77.9,29.93,East,97,8.0,8.0,100,0.00,,,0.00,Wunderground v.1.15,2013-02-22 20:35:00,
2013-02-22 15:40:00,78.1,78.1,29.93,East,95,7.0,7.0,100,0.00,,,0.00,Wunderground v.1.15,2013-02-22 20:40:00,
2013-02-22 15:45:00,78.3,78.3,29.93,SE,127,6.0,7.0,100,0.00,,,0.00,Wunderground v.1.15,2013-02-22 20:45:00,
2013-02-22 15:50:00,78.5,78.5,29.93,ESE,116,4.0,5.0,100,0.00,,,0.00,Wunderground v.1.15,2013-02-22 20:50:00,
2013-02-22 16:00:00,78.1,78.1,29.93,ESE,113,6.0,6.0,100,0.00,,,0.00,Wunderground v.1.15,2013-02-22 21:00:00,
2013-02-22 16:10:00,77.9,77.9,29.93,ESE,112,6.0,8.0,100,0.00,,,0.00,Wunderground v.1.15,2013-02-22 21:10:00,
2013-02-22 16:15:00,77.7,77.7,29.93,SE,138,7.0,8.0,100,0.00,,,0.00,Wunderground v.1.15,2013-02-22 21:15:00,
2013-02-22 16:25:00,77.6,77.6,29.93,East,100,7.0,8.0,100,0.00,,,0.00,Wunderground v.1.15,2013-02-22 21:25:00,
2013-02-22 16:30:00,77.7,77.7,29.92,SE,143,7.0,7.0,100,0.00,,,0.00,Wunderground v.1.15,2013-02-22 21:30:00,
2013-02-22 16:35:00,77.6,77.6,29.92,ESE,117,7.0,10.0,100,0.00,,,0.00,Wunderground v.1.15,2013-02-22 21:35:00,
2013-02-22 16:40:00,77.4,77.4,29.92,ESE,114,8.0,10.0,100,0.00,,,0.00,Wunderground v.1.15,2013-02-22 21:40:00,
2013-02-22 16:45:00,77.6,77.6,29.92,ESE,121,7.0,12.0,100,0.00,,,0.00,Wunderground v.1.15,2013-02-22 21:45:00,
2013-02-22 16:50:00,77.4,77.4,29.92,ESE,103,7.0,8.0,100,0.00,,,0.00,Wunderground v.1.15,2013-02-22 21:50:00,
2013-02-22 17:00:00,77.4,77.4,29.92,ESE,113,8.0,8.0,100,0.00,,,0.00,Wunderground v.1.15,2013-02-22 22:00:00,
2013-02-22 17:05:00,77.2,77.2,29.92,East,89,7.0,10.0,100,0.00,,,0.00,Wunderground v.1.15,2013-02-22 22:05:00,
2013-02-22 17:10:00,77.2,77.2,29.92,ESE,112,7.0,8.0,100,0.00,,,0.00,Wunderground v.1.15,2013-02-22 22:10:00,
2013-02-22 17:15:00,77.2,77.2,29.92,ESE,109,7.0,8.0,100,0.00,,,0.00,Wunderground v.1.15,2013-02-22 22:15:00,
2013-02-22 17:20:00,77.2,77.2,29.92,ESE,117,5.0,7.0,100,0.00,,,0.00,Wunderground v.1.15,2013-02-22 22:20:00,
2013-02-22 17:30:00,77.0,77.0,29.92,ESE,113,6.0,6.0,100,0.00,,,0.00,Wunderground v.1.15,2013-02-22 22:30:00,
2013-02-22 17:35:00,77.2,77.2,29.92,ESE,103,4.0,6.0,100,0.00,,,0.00,Wunderground v.1.15,2013-02-22 22:35:00,
2013-02-22 17:40:00,77.2,77.2,29.92,ESE,110,2.0,4.0,100,0.00,,,0.00,Wunderground v.1.15,2013-02-22 22:40:00,
2013-02-22 17:50:00,76.8,76.8,29.93,East,100,4.0,7.0,100,0.00,,,0.00,Wunderground v.1.15,2013-02-22 22:50:00,
2013-02-22 18:00:00,76.7,76.7,29.92,East,85,4.0,4.0,100,0.00,,,0.00,Wunderground v.1.15,2013-02-22 23:00:00,
2013-02-22 18:05:00,76.5,76.5,29.92,ENE,73,4.0,4.0,100,0.00,,,0.00,Wunderground v.1.15,2013-02-22 23:05:00,
2013-02-22 18:10:00,76.3,76.3,29.92,SE,124,4.0,6.0,100,0.00,,,0.00,Wunderground v.1.15,2013-02-22 23:10:00,
2013-02-22 18:20:00,76.1,76.1,29.93,ESE,107,4.0,4.0,100,0.00,,,0.00,Wunderground v.1.15,2013-02-22 23:20:00,
2013-02-22 18:30:00,76.1,76.1,29.93,SE,128,5.0,5.0,100,0.00,,,0.00,Wunderground v.1.15,2013-02-22 23:30:00,
2013-02-22 18:40:00,76.0,76.0,29.93,East,86,5.0,5.0,100,0.00,,,0.00,Wunderground v.1.15,2013-02-22 23:40:00,
2013-02-22 18:45:00,76.0,76.0,29.93,East,88,5.0,7.0,100,0.00,,,0.00,Wunderground v.1.15,2013-02-22 23:45:00,
2013-02-22 18:55:00,76.0,76.0,29.93,East,88,5.0,6.0,100,0.00,,,0.00,Wunderground v.1.15,2013-02-22 23:55:00,
2013-02-22 19:00:00,75.8,75.8,29.93,ENE,72,4.0,4.0,100,0.00,,,0.00,Wunderground v.1.15,2013-02-23 00:00:00,
2013-02-22 19:10:00,75.8,75.8,29.93,East,79,3.0,3.0,100,0.00,,,0.00,Wunderground v.1.15,2013-02-23 00:10:00,
2013-02-22 19:15:00,75.8,75.8,29.94,ESE,109,3.0,3.0,100,0.00,,,0.00,Wunderground v.1.15,2013-02-23 00:15:00,
2013-02-22 19:20:00,75.8,75.8,29.94,ESE,109,3.0,3.0,100,0.00,,,0.00,Wunderground v.1.15,2013-02-23 00:20:00,
2013-02-22 19:30:00,75.8,75.8,29.94,ESE,113,4.0,7.0,100,0.00,,,0.00,Wunderground v.1.15,2013-02-23 00:30:00,
2013-02-22 19:40:00,75.6,75.6,29.94,NE,55,4.0,4.0,100,0.00,,,0.00,Wunderground v.1.15,2013-02-23 00:40:00,
2013-02-22 19:45:00,75.8,75.8,29.95,East,79,4.0,5.0,100,0.00,,,0.00,Wunderground v.1.15,2013-02-23 00:45:00,
2013-02-22 19:50:00,75.6,75.6,29.95,East,93,4.0,4.0,100,0.00,,,0.00,Wunderground v.1.15,2013-02-23 00:50:00,
2013-02-22 19:55:00,75.8,75.8,29.95,ESE,109,4.0,6.0,100,0.00,,,0.00,Wunderground v.1.15,2013-02-23 00:55:00,
2013-02-22 20:05:00,75.6,75.6,29.95,ESE,106,5.0,6.0,100,0.00,,,0.00,Wunderground v.1.15,2013-02-23 01:05:00,
2013-02-22 20:10:00,75.6,75.6,29.95,ESE,109,4.0,4.0,100,0.00,,,0.00,Wunderground v.1.15,2013-02-23 01:10:00,
2013-02-22 20:15:00,75.6,75.6,29.95,ESE,113,4.0,8.0,100,0.00,,,0.00,Wunderground v.1.15,2013-02-23 01:15:00,
2013-02-22 20:25:00,75.6,75.6,29.95,ESE,113,4.0,6.0,100,0.00,,,0.00,Wunderground v.1.15,2013-02-23 01:25:00,
2013-02-22 20:35:00,75.6,75.6,29.95,East,89,4.0,6.0,100,0.00,,,0.00,Wunderground v.1.15,2013-02-23 01:35:00,
2013-02-22 20:40:00,75.6,75.6,29.95,ESE,112,4.0,4.0,100,0.00,,,0.00,Wunderground v.1.15,2013-02-23 01:40:00,
2013-02-22 20:45:00,75.6,75.6,29.96,ESE,112,4.0,5.0,100,0.00,,,0.00,Wunderground v.1.15,2013-02-23 01:45:00,
2013-02-22 20:55:00,75.6,75.6,29.96,ESE,103,5.0,5.0,100,0.00,,,0.00,Wunderground v.1.15,2013-02-23 01:55:00,
2013-02-22 21:05:00,75.6,75.6,29.96,East,99,6.0,8.0,100,0.00,,,0.00,Wunderground v.1.15,2013-02-23 02:05:00,
2013-02-22 21:10:00,75.6,75.6,29.96,East,89,5.0,7.0,100,0.00,,,0.00,Wunderground v.1.15,2013-02-23 02:10:00,
2013-02-22 21:20:00,75.6,75.6,29.97,East,88,5.0,5.0,100,0.00,,,0.00,Wunderground v.1.15,2013-02-23 02:20:00,
2013-02-22 21:25:00,75.4,75.4,29.97,East,86,5.0,5.0,100,0.00,,,0.00,Wunderground v.1.15,2013-02-23 02:25:00,
2013-02-22 21:30:00,75.6,75.6,29.97,East,92,5.0,5.0,100,0.00,,,0.00,Wunderground v.1.15,2013-02-23 02:30:00,
2013-02-22 21:35:00,75.4,75.4,29.97,ESE,110,4.0,5.0,100,0.00,,,0.00,Wunderground v.1.15,2013-02-23 02:35:00,
2013-02-22 21:45:00,75.6,75.6,29.96,ESE,103,4.0,8.0,100,0.00,,,0.00,Wunderground v.1.15,2013-02-23 02:45:00,
2013-02-22 21:50:00,75.4,75.4,29.96,ESE,113,4.0,4.0,100,0.00,,,0.00,Wunderground v.1.15,2013-02-23 02:50:00,
2013-02-22 22:00:00,75.4,75.4,29.96,East,100,5.0,7.0,100,0.00,,,0.00,Wunderground v.1.15,2013-02-23 03:00:00,
2013-02-22 22:05:00,75.4,75.4,29.96,East,83,5.0,7.0,100,0.00,,,0.00,Wunderground v.1.15,2013-02-23 03:05:00,
2013-02-22 22:10:00,75.4,75.4,29.96,ESE,110,5.0,5.0,100,0.00,,,0.00,Wunderground v.1.15,2013-02-23 03:10:00,
2013-02-22 22:15:00,75.4,75.4,29.97,ESE,114,5.0,6.0,100,0.00,,,0.00,Wunderground v.1.15,2013-02-23 03:15:00,
2013-02-22 22:20:00,75.4,75.4,29.97,ESE,109,6.0,6.0,100,0.00,,,0.00,Wunderground v.1.15,2013-02-23 03:20:00,
2013-02-22 22:25:00,75.4,75.4,29.97,ESE,110,5.0,7.0,100,0.00,,,0.00,Wunderground v.1.15,2013-02-23 03:25:00,
2013-02-22 22:30:00,75.4,75.4,29.97,SE,128,5.0,5.0,100,0.00,,,0.00,Wunderground v.1.15,2013-02-23 03:30:00,
2013-02-22 22:35:00,75.4,75.4,29.97,ESE,116,6.0,6.0,100,0.00,,,0.00,Wunderground v.1.15,2013-02-23 03:35:00,
2013-02-22 22:40:00,75.6,75.6,29.97,ESE,110,6.0,6.0,100,0.00,,,0.00,Wunderground v.1.15,2013-02-23 03:40:00,
2013-02-22 22:45:00,75.4,75.4,29.97,ESE,117,4.0,6.0,100,0.00,,,0.00,Wunderground v.1.15,2013-02-23 03:45:00,
2013-02-22 22:55:00,75.4,75.4,29.97,ESE,103,6.0,7.0,100,0.00,,,0.00,Wunderground v.1.15,2013-02-23 03:55:00,
2013-02-22 23:05:00,75.4,75.4,29.96,ESE,113,7.0,10.0,100,0.00,,,0.00,Wunderground v.1.15,2013-02-23 04:05:00,
2013-02-22 23:10:00,75.6,75.6,29.96,ESE,117,8.0,11.0,100,0.00,,,0.00,Wunderground v.1.15,2013-02-23 04:10:00,
2013-02-22 23:20:00,75.6,75.6,29.96,ESE,109,8.0,8.0,100,0.00,,,0.00,Wunderground v.1.15,2013-02-23 04:20:00,
2013-02-22 23:25:00,75.6,75.6,29.96,ESE,117,8.0,8.0,100,0.00,,,0.00,Wunderground v.1.15,2013-02-23 04:25:00,
2013-02-22 23:35:00,75.6,75.6,29.96,ESE,117,7.0,12.0,100,0.00,,,0.00,Wunderground v.1.15,2013-02-23 04:35:00,
2013-02-22 23:40:00,75.6,75.6,29.96,ESE,113,7.0,8.0,100,0.00,,,0.00,Wunderground v.1.15,2013-02-23 04:40:00,
2013-02-22 23:50:00,75.6,75.6,29.96,ESE,103,6.0,13.0,100,0.00,,,0.00,Wunderground v.1.15,2013-02-23 04:50:00,
2013-02-22 23:55:00,75.6,75.6,29.96,ESE,114,8.0,13.0,100,0.00,,,0.00,Wunderground v.1.15,2013-02-23 04:55:00,